sensor_id;sensor_type;location;lat;lon;timestamp;P1;durP1;ratioP1;P2;durP2;ratioP2
34920;SDS011;21128;50.016;20.002;2023-03-03T00:00:49;108.50;;;58.67;;
34920;SDS011;21128;50.016;20.002;2023-03-03T00:03:20;127.50;;;69.87;;
34920;SDS011;21128;50.016;20.002;2023-03-03T00:05:49;120.07;;;64.93;;
34920;SDS011;21128;50.016;20.002;2023-03-03T00:08:17;112.37;;;60.87;;
34920;SDS011;21128;50.016;20.002;2023-03-03T00:10:46;111.23;;;62.20;;
34920;SDS011;21128;50.016;20.002;2023-03-03T00:13:20;117.50;;;62.87;;
34920;SDS011;21128;50.016;20.002;2023-03-03T00:15:50;111.60;;;60.77;;
34920;SDS011;21128;50.016;20.002;2023-03-03T00:18:20;109.20;;;62.27;;
34920;SDS011;21128;50.016;20.002;2023-03-03T00:20:52;107.15;;;59.20;;
34920;SDS011;21128;50.016;20.002;2023-03-03T00:23:37;115.17;;;61.77;;
34920;SDS011;21128;50.016;20.002;2023-03-03T00:28:57;115.30;;;63.33;;
34920;SDS011;21128;50.016;20.002;2023-03-03T00:31:27;112.30;;;62.27;;
34920;SDS011;21128;50.016;20.002;2023-03-03T00:36:53;117.63;;;62.83;;
34920;SDS011;21128;50.016;20.002;2023-03-03T00:39:28;110.50;;;61.70;;
34920;SDS011;21128;50.016;20.002;2023-03-03T00:41:59;116.20;;;62.23;;
34920;SDS011;21128;50.016;20.002;2023-03-03T00:44:31;114.80;;;64.15;;
34920;SDS011;21128;50.016;20.002;2023-03-03T00:49:55;113.87;;;63.90;;
34920;SDS011;21128;50.016;20.002;2023-03-03T00:52:52;113.55;;;62.65;;
34920;SDS011;21128;50.016;20.002;2023-03-03T00:55:38;104.97;;;59.73;;
34920;SDS011;21128;50.016;20.002;2023-03-03T00:58:06;113.57;;;62.47;;
34920;SDS011;21128;50.016;20.002;2023-03-03T01:00:33;114.75;;;60.48;;
34920;SDS011;21128;50.016;20.002;2023-03-03T01:03:05;116.73;;;62.00;;
34920;SDS011;21128;50.016;20.002;2023-03-03T01:05:35;113.63;;;62.43;;
34920;SDS011;21128;50.016;20.002;2023-03-03T01:08:03;114.57;;;62.83;;
34920;SDS011;21128;50.016;20.002;2023-03-03T01:10:31;120.13;;;66.20;;
34920;SDS011;21128;50.016;20.002;2023-03-03T01:13:02;115.57;;;63.40;;
34920;SDS011;21128;50.016;20.002;2023-03-03T01:15:31;114.00;;;61.60;;
34920;SDS011;21128;50.016;20.002;2023-03-03T01:17:58;119.30;;;64.43;;
34920;SDS011;21128;50.016;20.002;2023-03-03T01:20:25;113.77;;;62.27;;
34920;SDS011;21128;50.016;20.002;2023-03-03T01:22:53;119.65;;;64.35;;
34920;SDS011;21128;50.016;20.002;2023-03-03T01:25:23;112.30;;;61.30;;
34920;SDS011;21128;50.016;20.002;2023-03-03T01:27:53;114.77;;;61.60;;
34920;SDS011;21128;50.016;20.002;2023-03-03T01:30:20;109.70;;;61.70;;
34920;SDS011;21128;50.016;20.002;2023-03-03T01:32:51;104.43;;;58.37;;
34920;SDS011;21128;50.016;20.002;2023-03-03T01:35:19;103.17;;;56.07;;
34920;SDS011;21128;50.016;20.002;2023-03-03T01:37:47;106.37;;;59.13;;
34920;SDS011;21128;50.016;20.002;2023-03-03T01:40:21;108.97;;;58.07;;
34920;SDS011;21128;50.016;20.002;2023-03-03T01:42:52;106.07;;;56.63;;
34920;SDS011;21128;50.016;20.002;2023-03-03T01:47:58;110.25;;;58.85;;
34920;SDS011;21128;50.016;20.002;2023-03-03T01:50:30;82.53;;;44.93;;
34920;SDS011;21128;50.016;20.002;2023-03-03T01:53:10;121.53;;;61.37;;
34920;SDS011;21128;50.016;20.002;2023-03-03T01:55:41;109.27;;;58.37;;
34920;SDS011;21128;50.016;20.002;2023-03-03T02:01:30;109.20;;;58.80;;
34920;SDS011;21128;50.016;20.002;2023-03-03T02:03:59;106.05;;;60.60;;
34920;SDS011;21128;50.016;20.002;2023-03-03T02:06:28;116.57;;;59.47;;
34920;SDS011;21128;50.016;20.002;2023-03-03T02:11:33;107.90;;;57.73;;
34920;SDS011;21128;50.016;20.002;2023-03-03T02:14:03;105.13;;;57.77;;
34920;SDS011;21128;50.016;20.002;2023-03-03T02:16:32;103.30;;;57.80;;
34920;SDS011;21128;50.016;20.002;2023-03-03T02:18:59;99.40;;;56.53;;
34920;SDS011;21128;50.016;20.002;2023-03-03T02:21:26;108.45;;;56.48;;
34920;SDS011;21128;50.016;20.002;2023-03-03T02:26:46;106.30;;;56.13;;
34920;SDS011;21128;50.016;20.002;2023-03-03T02:29:14;105.57;;;56.20;;
34920;SDS011;21128;50.016;20.002;2023-03-03T02:31:41;100.70;;;55.57;;
34920;SDS011;21128;50.016;20.002;2023-03-03T02:34:09;102.77;;;55.67;;
34920;SDS011;21128;50.016;20.002;2023-03-03T02:36:38;105.63;;;56.87;;
34920;SDS011;21128;50.016;20.002;2023-03-03T02:44:20;104.83;;;54.63;;
34920;SDS011;21128;50.016;20.002;2023-03-03T02:46:49;99.10;;;56.30;;
34920;SDS011;21128;50.016;20.002;2023-03-03T02:49:20;111.43;;;59.30;;
34920;SDS011;21128;50.016;20.002;2023-03-03T02:51:50;96.43;;;54.83;;
34920;SDS011;21128;50.016;20.002;2023-03-03T02:54:21;103.90;;;56.10;;
34920;SDS011;21128;50.016;20.002;2023-03-03T02:56:50;104.80;;;56.10;;
34920;SDS011;21128;50.016;20.002;2023-03-03T02:59:17;102.03;;;54.90;;
34920;SDS011;21128;50.016;20.002;2023-03-03T03:01:48;102.87;;;54.80;;
34920;SDS011;21128;50.016;20.002;2023-03-03T03:04:34;100.17;;;55.27;;
34920;SDS011;21128;50.016;20.002;2023-03-03T03:07:01;98.33;;;55.60;;
34920;SDS011;21128;50.016;20.002;2023-03-03T03:09:29;114.37;;;62.37;;
34920;SDS011;21128;50.016;20.002;2023-03-03T03:11:56;116.70;;;61.80;;
34920;SDS011;21128;50.016;20.002;2023-03-03T03:14:28;104.00;;;60.77;;
34920;SDS011;21128;50.016;20.002;2023-03-03T03:16:58;113.37;;;60.20;;
34920;SDS011;21128;50.016;20.002;2023-03-03T03:19:25;116.00;;;61.83;;
34920;SDS011;21128;50.016;20.002;2023-03-03T03:21:52;115.57;;;65.20;;
34920;SDS011;21128;50.016;20.002;2023-03-03T03:24:19;119.23;;;64.87;;
34920;SDS011;21128;50.016;20.002;2023-03-03T03:26:46;110.00;;;63.43;;
34920;SDS011;21128;50.016;20.002;2023-03-03T03:29:13;117.20;;;64.33;;
34920;SDS011;21128;50.016;20.002;2023-03-03T03:31:40;117.73;;;62.97;;
34920;SDS011;21128;50.016;20.002;2023-03-03T03:34:09;110.97;;;60.93;;
34920;SDS011;21128;50.016;20.002;2023-03-03T03:36:36;108.07;;;60.30;;
34920;SDS011;21128;50.016;20.002;2023-03-03T03:39:05;120.23;;;65.03;;
34920;SDS011;21128;50.016;20.002;2023-03-03T03:41:32;110.08;;;62.50;;
34920;SDS011;21128;50.016;20.002;2023-03-03T03:43:59;120.40;;;64.00;;
34920;SDS011;21128;50.016;20.002;2023-03-03T03:46:26;121.67;;;64.13;;
34920;SDS011;21128;50.016;20.002;2023-03-03T03:48:53;115.30;;;62.73;;
34920;SDS011;21128;50.016;20.002;2023-03-03T03:51:20;120.47;;;62.47;;
34920;SDS011;21128;50.016;20.002;2023-03-03T03:53:47;127.73;;;66.37;;
34920;SDS011;21128;50.016;20.002;2023-03-03T03:56:14;120.67;;;63.83;;
34920;SDS011;21128;50.016;20.002;2023-03-03T03:58:42;111.77;;;62.00;;
34920;SDS011;21128;50.016;20.002;2023-03-03T04:01:09;120.57;;;66.07;;
34920;SDS011;21128;50.016;20.002;2023-03-03T04:03:36;111.20;;;62.80;;
34920;SDS011;21128;50.016;20.002;2023-03-03T04:06:03;117.13;;;65.77;;
34920;SDS011;21128;50.016;20.002;2023-03-03T04:08:30;116.83;;;63.03;;
34920;SDS011;21128;50.016;20.002;2023-03-03T04:10:57;116.17;;;63.20;;
34920;SDS011;21128;50.016;20.002;2023-03-03T04:13:24;120.45;;;63.60;;
34920;SDS011;21128;50.016;20.002;2023-03-03T04:15:54;117.70;;;63.67;;
34920;SDS011;21128;50.016;20.002;2023-03-03T04:18:21;133.85;;;66.00;;
34920;SDS011;21128;50.016;20.002;2023-03-03T04:20:48;120.13;;;63.73;;
34920;SDS011;21128;50.016;20.002;2023-03-03T04:23:17;114.63;;;61.07;;
34920;SDS011;21128;50.016;20.002;2023-03-03T04:25:46;115.53;;;60.60;;
34920;SDS011;21128;50.016;20.002;2023-03-03T04:28:15;118.20;;;63.70;;
34920;SDS011;21128;50.016;20.002;2023-03-03T04:30:43;114.20;;;62.30;;
34920;SDS011;21128;50.016;20.002;2023-03-03T04:33:10;114.80;;;60.90;;
34920;SDS011;21128;50.016;20.002;2023-03-03T04:35:38;112.30;;;61.77;;
34920;SDS011;21128;50.016;20.002;2023-03-03T04:38:05;120.53;;;65.83;;
34920;SDS011;21128;50.016;20.002;2023-03-03T04:40:35;121.73;;;62.70;;
34920;SDS011;21128;50.016;20.002;2023-03-03T04:43:02;128.17;;;68.10;;
34920;SDS011;21128;50.016;20.002;2023-03-03T04:45:30;127.58;;;68.28;;
34920;SDS011;21128;50.016;20.002;2023-03-03T04:47:57;111.47;;;62.07;;
34920;SDS011;21128;50.016;20.002;2023-03-03T04:50:24;103.70;;;60.57;;
34920;SDS011;21128;50.016;20.002;2023-03-03T04:52:54;111.15;;;61.00;;
34920;SDS011;21128;50.016;20.002;2023-03-03T04:55:22;110.87;;;61.07;;
34920;SDS011;21128;50.016;20.002;2023-03-03T04:57:49;115.75;;;60.05;;
34920;SDS011;21128;50.016;20.002;2023-03-03T05:00:16;107.97;;;61.37;;
34920;SDS011;21128;50.016;20.002;2023-03-03T05:02:46;111.37;;;60.33;;
34920;SDS011;21128;50.016;20.002;2023-03-03T05:05:14;108.57;;;59.50;;
34920;SDS011;21128;50.016;20.002;2023-03-03T05:07:42;117.07;;;61.43;;
34920;SDS011;21128;50.016;20.002;2023-03-03T05:10:09;116.77;;;63.23;;
34920;SDS011;21128;50.016;20.002;2023-03-03T05:12:37;115.03;;;61.27;;
34920;SDS011;21128;50.016;20.002;2023-03-03T05:15:05;111.40;;;63.95;;
34920;SDS011;21128;50.016;20.002;2023-03-03T05:17:33;113.60;;;63.10;;
34920;SDS011;21128;50.016;20.002;2023-03-03T05:20:00;111.40;;;61.83;;
34920;SDS011;21128;50.016;20.002;2023-03-03T05:22:27;120.70;;;66.40;;
34920;SDS011;21128;50.016;20.002;2023-03-03T05:24:56;130.17;;;68.97;;
34920;SDS011;21128;50.016;20.002;2023-03-03T05:27:23;120.82;;;66.47;;
34920;SDS011;21128;50.016;20.002;2023-03-03T05:29:50;120.37;;;66.60;;
34920;SDS011;21128;50.016;20.002;2023-03-03T05:32:17;133.60;;;69.63;;
34920;SDS011;21128;50.016;20.002;2023-03-03T05:34:44;123.00;;;67.95;;
34920;SDS011;21128;50.016;20.002;2023-03-03T05:37:11;135.67;;;74.07;;
34920;SDS011;21128;50.016;20.002;2023-03-03T05:39:38;133.93;;;74.97;;
34920;SDS011;21128;50.016;20.002;2023-03-03T05:42:05;141.40;;;78.03;;
34920;SDS011;21128;50.016;20.002;2023-03-03T05:44:32;135.78;;;77.42;;
34920;SDS011;21128;50.016;20.002;2023-03-03T05:46:59;152.45;;;82.40;;
34920;SDS011;21128;50.016;20.002;2023-03-03T05:49:26;149.50;;;80.50;;
34920;SDS011;21128;50.016;20.002;2023-03-03T05:51:53;154.63;;;82.57;;
34920;SDS011;21128;50.016;20.002;2023-03-03T05:54:20;158.12;;;82.57;;
34920;SDS011;21128;50.016;20.002;2023-03-03T05:56:47;156.27;;;83.30;;
34920;SDS011;21128;50.016;20.002;2023-03-03T05:59:14;162.90;;;85.23;;
34920;SDS011;21128;50.016;20.002;2023-03-03T06:01:41;159.95;;;86.40;;
34920;SDS011;21128;50.016;20.002;2023-03-03T06:04:08;162.43;;;85.90;;
34920;SDS011;21128;50.016;20.002;2023-03-03T06:06:35;172.10;;;87.47;;
34920;SDS011;21128;50.016;20.002;2023-03-03T06:09:02;170.13;;;89.40;;
34920;SDS011;21128;50.016;20.002;2023-03-03T06:11:29;172.00;;;90.97;;
34920;SDS011;21128;50.016;20.002;2023-03-03T06:13:56;162.97;;;89.17;;
34920;SDS011;21128;50.016;20.002;2023-03-03T06:16:23;161.93;;;89.63;;
34920;SDS011;21128;50.016;20.002;2023-03-03T06:18:50;165.80;;;92.03;;
34920;SDS011;21128;50.016;20.002;2023-03-03T06:21:17;170.60;;;90.10;;
34920;SDS011;21128;50.016;20.002;2023-03-03T06:23:44;172.97;;;91.50;;
34920;SDS011;21128;50.016;20.002;2023-03-03T06:26:11;172.53;;;89.13;;
34920;SDS011;21128;50.016;20.002;2023-03-03T06:28:38;170.45;;;92.20;;
34920;SDS011;21128;50.016;20.002;2023-03-03T06:31:05;178.87;;;91.47;;
34920;SDS011;21128;50.016;20.002;2023-03-03T06:33:32;171.87;;;93.83;;
34920;SDS011;21128;50.016;20.002;2023-03-03T06:35:59;174.40;;;89.73;;
34920;SDS011;21128;50.016;20.002;2023-03-03T06:38:26;175.63;;;91.93;;
34920;SDS011;21128;50.016;20.002;2023-03-03T06:40:53;171.93;;;93.05;;
34920;SDS011;21128;50.016;20.002;2023-03-03T06:43:20;169.67;;;90.97;;
34920;SDS011;21128;50.016;20.002;2023-03-03T06:45:47;165.40;;;88.45;;
34920;SDS011;21128;50.016;20.002;2023-03-03T06:48:14;159.22;;;89.77;;
34920;SDS011;21128;50.016;20.002;2023-03-03T06:50:41;169.40;;;92.70;;
34920;SDS011;21128;50.016;20.002;2023-03-03T06:53:12;170.28;;;93.62;;
34920;SDS011;21128;50.016;20.002;2023-03-03T06:55:41;159.83;;;88.23;;
34920;SDS011;21128;50.016;20.002;2023-03-03T06:58:11;170.43;;;93.27;;
34920;SDS011;21128;50.016;20.002;2023-03-03T07:03:21;175.07;;;93.67;;
34920;SDS011;21128;50.016;20.002;2023-03-03T07:06:01;173.77;;;92.17;;
34920;SDS011;21128;50.016;20.002;2023-03-03T07:08:40;174.75;;;94.30;;
34920;SDS011;21128;50.016;20.002;2023-03-03T07:11:11;182.47;;;95.43;;
34920;SDS011;21128;50.016;20.002;2023-03-03T07:13:52;180.80;;;98.30;;
34920;SDS011;21128;50.016;20.002;2023-03-03T07:16:24;170.70;;;92.43;;
34920;SDS011;21128;50.016;20.002;2023-03-03T07:21:33;169.00;;;91.95;;
34920;SDS011;21128;50.016;20.002;2023-03-03T07:24:24;161.95;;;85.60;;
34920;SDS011;21128;50.016;20.002;2023-03-03T07:26:58;170.30;;;92.97;;
34920;SDS011;21128;50.016;20.002;2023-03-03T07:29:47;157.93;;;85.55;;
34920;SDS011;21128;50.016;20.002;2023-03-03T07:32:34;156.43;;;84.80;;
34920;SDS011;21128;50.016;20.002;2023-03-03T07:35:49;148.67;;;85.93;;
34920;SDS011;21128;50.016;20.002;2023-03-03T07:38:13;152.83;;;84.43;;
34920;SDS011;21128;50.016;20.002;2023-03-03T07:41:04;147.03;;;82.30;;
34920;SDS011;21128;50.016;20.002;2023-03-03T07:43:59;160.95;;;85.20;;
34920;SDS011;21128;50.016;20.002;2023-03-03T07:46:39;153.43;;;83.00;;
34920;SDS011;21128;50.016;20.002;2023-03-03T07:51:55;147.65;;;82.75;;
34920;SDS011;21128;50.016;20.002;2023-03-03T08:00:00;146.50;;;80.30;;
34920;SDS011;21128;50.016;20.002;2023-03-03T08:02:50;146.73;;;81.90;;
34920;SDS011;21128;50.016;20.002;2023-03-03T08:10:42;140.40;;;81.53;;
34920;SDS011;21128;50.016;20.002;2023-03-03T08:13:27;103.15;;;61.58;;
34920;SDS011;21128;50.016;20.002;2023-03-03T08:15:56;138.77;;;77.13;;
34920;SDS011;21128;50.016;20.002;2023-03-03T08:18:33;146.13;;;84.77;;
34920;SDS011;21128;50.016;20.002;2023-03-03T08:21:15;139.13;;;83.77;;
34920;SDS011;21128;50.016;20.002;2023-03-03T08:23:44;145.33;;;86.80;;
34920;SDS011;21128;50.016;20.002;2023-03-03T08:26:12;140.97;;;84.70;;
34920;SDS011;21128;50.016;20.002;2023-03-03T08:28:39;148.30;;;86.17;;
34920;SDS011;21128;50.016;20.002;2023-03-03T08:31:07;149.23;;;88.07;;
34920;SDS011;21128;50.016;20.002;2023-03-03T08:33:34;151.43;;;88.20;;
34920;SDS011;21128;50.016;20.002;2023-03-03T08:36:01;158.53;;;92.53;;
34920;SDS011;21128;50.016;20.002;2023-03-03T08:38:28;151.70;;;90.50;;
34920;SDS011;21128;50.016;20.002;2023-03-03T08:40:55;155.20;;;89.17;;
34920;SDS011;21128;50.016;20.002;2023-03-03T08:43:22;151.90;;;90.33;;
34920;SDS011;21128;50.016;20.002;2023-03-03T08:45:51;144.43;;;86.67;;
34920;SDS011;21128;50.016;20.002;2023-03-03T08:48:25;143.00;;;88.33;;
34920;SDS011;21128;50.016;20.002;2023-03-03T08:50:53;138.70;;;84.23;;
34920;SDS011;21128;50.016;20.002;2023-03-03T08:53:22;139.17;;;84.70;;
34920;SDS011;21128;50.016;20.002;2023-03-03T08:55:50;136.53;;;83.90;;
34920;SDS011;21128;50.016;20.002;2023-03-03T08:58:18;148.20;;;89.87;;
34920;SDS011;21128;50.016;20.002;2023-03-03T09:00:45;143.33;;;88.60;;
34920;SDS011;21128;50.016;20.002;2023-03-03T09:03:12;154.50;;;95.07;;
34920;SDS011;21128;50.016;20.002;2023-03-03T09:05:40;159.10;;;92.80;;
34920;SDS011;21128;50.016;20.002;2023-03-03T09:08:07;158.07;;;94.57;;
34920;SDS011;21128;50.016;20.002;2023-03-03T09:10:36;151.93;;;92.63;;
34920;SDS011;21128;50.016;20.002;2023-03-03T09:13:06;161.53;;;95.87;;
34920;SDS011;21128;50.016;20.002;2023-03-03T09:15:40;153.75;;;93.90;;
34920;SDS011;21128;50.016;20.002;2023-03-03T09:20:38;150.93;;;92.10;;
34920;SDS011;21128;50.016;20.002;2023-03-03T09:29:50;148.40;;;88.97;;
34920;SDS011;21128;50.016;20.002;2023-03-03T09:31:56;146.60;;;89.07;;
34920;SDS011;21128;50.016;20.002;2023-03-03T09:36:59;138.13;;;83.07;;
34920;SDS011;21128;50.016;20.002;2023-03-03T09:39:28;140.50;;;81.85;;
34920;SDS011;21128;50.016;20.002;2023-03-03T09:42:07;145.60;;;85.90;;
34920;SDS011;21128;50.016;20.002;2023-03-03T10:01:57;131.05;;;79.05;;
34920;SDS011;21128;50.016;20.002;2023-03-03T10:08:36;137.10;;;84.20;;
34920;SDS011;21128;50.016;20.002;2023-03-03T10:10:55;141.33;;;84.73;;
34920;SDS011;21128;50.016;20.002;2023-03-03T10:13:52;131.73;;;81.53;;
34920;SDS011;21128;50.016;20.002;2023-03-03T10:24:30;127.97;;;78.57;;
34920;SDS011;21128;50.016;20.002;2023-03-03T10:45:34;140.18;;;84.85;;
34920;SDS011;21128;50.016;20.002;2023-03-03T10:54:08;133.30;;;80.67;;
34920;SDS011;21128;50.016;20.002;2023-03-03T11:05:31;132.87;;;70.83;;
34920;SDS011;21128;50.016;20.002;2023-03-03T11:08:21;139.47;;;87.30;;
34920;SDS011;21128;50.016;20.002;2023-03-03T11:13:42;148.20;;;92.80;;
34920;SDS011;21128;50.016;20.002;2023-03-03T11:16:33;151.93;;;93.03;;
34920;SDS011;21128;50.016;20.002;2023-03-03T11:27:51;168.40;;;101.40;;
34920;SDS011;21128;50.016;20.002;2023-03-03T11:36:14;172.50;;;105.33;;
34920;SDS011;21128;50.016;20.002;2023-03-03T11:38:57;176.77;;;102.70;;
34920;SDS011;21128;50.016;20.002;2023-03-03T11:44:39;179.37;;;97.70;;
34920;SDS011;21128;50.016;20.002;2023-03-03T11:47:24;150.50;;;84.53;;
34920;SDS011;21128;50.016;20.002;2023-03-03T11:55:43;144.40;;;80.80;;
34920;SDS011;21128;50.016;20.002;2023-03-03T11:58:26;142.62;;;81.45;;
34920;SDS011;21128;50.016;20.002;2023-03-03T12:01:00;124.25;;;69.10;;
34920;SDS011;21128;50.016;20.002;2023-03-03T12:03:48;154.20;;;89.60;;
34920;SDS011;21128;50.016;20.002;2023-03-03T12:12:05;193.27;;;110.50;;
34920;SDS011;21128;50.016;20.002;2023-03-03T12:20:33;130.97;;;71.00;;
34920;SDS011;21128;50.016;20.002;2023-03-03T12:23:30;137.30;;;77.77;;
34920;SDS011;21128;50.016;20.002;2023-03-03T12:26:02;136.50;;;81.07;;
34920;SDS011;21128;50.016;20.002;2023-03-03T12:28:42;157.43;;;87.20;;
34920;SDS011;21128;50.016;20.002;2023-03-03T12:31:24;157.50;;;89.33;;
34920;SDS011;21128;50.016;20.002;2023-03-03T12:33:54;139.50;;;77.50;;
34920;SDS011;21128;50.016;20.002;2023-03-03T12:36:31;123.37;;;68.03;;
34920;SDS011;21128;50.016;20.002;2023-03-03T12:53:29;116.20;;;58.55;;
34920;SDS011;21128;50.016;20.002;2023-03-03T12:56:05;112.13;;;57.17;;
34920;SDS011;21128;50.016;20.002;2023-03-03T13:04:04;116.20;;;58.10;;
34920;SDS011;21128;50.016;20.002;2023-03-03T13:17:58;90.40;;;46.57;;
34920;SDS011;21128;50.016;20.002;2023-03-03T13:26:10;95.67;;;47.70;;
34920;SDS011;21128;50.016;20.002;2023-03-03T13:31:53;94.05;;;45.70;;
34920;SDS011;21128;50.016;20.002;2023-03-03T13:34:36;88.93;;;42.27;;
34920;SDS011;21128;50.016;20.002;2023-03-03T13:37:31;94.37;;;46.97;;
34920;SDS011;21128;50.016;20.002;2023-03-03T13:42:47;97.70;;;47.80;;
34920;SDS011;21128;50.016;20.002;2023-03-03T13:50:56;104.00;;;51.70;;
34920;SDS011;21128;50.016;20.002;2023-03-03T14:07:10;103.83;;;47.13;;
34920;SDS011;21128;50.016;20.002;2023-03-03T14:09:47;92.13;;;44.20;;
34920;SDS011;21128;50.016;20.002;2023-03-03T14:20:18;91.37;;;43.05;;
34920;SDS011;21128;50.016;20.002;2023-03-03T14:22:58;97.78;;;42.93;;
34920;SDS011;21128;50.016;20.002;2023-03-03T14:25:49;92.72;;;42.85;;
34920;SDS011;21128;50.016;20.002;2023-03-03T14:28:23;92.37;;;44.30;;
34920;SDS011;21128;50.016;20.002;2023-03-03T14:30:56;87.67;;;43.83;;
34920;SDS011;21128;50.016;20.002;2023-03-03T14:33:28;97.13;;;46.13;;
34920;SDS011;21128;50.016;20.002;2023-03-03T14:43:45;84.20;;;40.03;;
34920;SDS011;21128;50.016;20.002;2023-03-03T14:49:06;83.97;;;41.17;;
34920;SDS011;21128;50.016;20.002;2023-03-03T14:51:42;83.35;;;41.55;;
34920;SDS011;21128;50.016;20.002;2023-03-03T14:54:26;90.73;;;42.57;;
34920;SDS011;21128;50.016;20.002;2023-03-03T14:56:58;87.40;;;42.07;;
34920;SDS011;21128;50.016;20.002;2023-03-03T14:59:25;80.43;;;38.17;;
34920;SDS011;21128;50.016;20.002;2023-03-03T15:01:59;85.60;;;38.77;;
34920;SDS011;21128;50.016;20.002;2023-03-03T15:04:31;75.13;;;35.50;;
34920;SDS011;21128;50.016;20.002;2023-03-03T15:07:00;77.65;;;36.45;;
34920;SDS011;21128;50.016;20.002;2023-03-03T15:10:00;85.60;;;38.43;;
34920;SDS011;21128;50.016;20.002;2023-03-03T15:17:36;82.37;;;40.10;;
34920;SDS011;21128;50.016;20.002;2023-03-03T15:25:55;81.80;;;40.07;;
34920;SDS011;21128;50.016;20.002;2023-03-03T15:31:46;87.10;;;42.70;;
34920;SDS011;21128;50.016;20.002;2023-03-03T15:40:01;81.85;;;41.30;;
34920;SDS011;21128;50.016;20.002;2023-03-03T15:42:51;76.63;;;39.73;;
34920;SDS011;21128;50.016;20.002;2023-03-03T15:45:48;78.27;;;38.50;;
34920;SDS011;21128;50.016;20.002;2023-03-03T16:04:56;82.73;;;39.80;;
34920;SDS011;21128;50.016;20.002;2023-03-03T16:15:42;75.20;;;37.80;;
34920;SDS011;21128;50.016;20.002;2023-03-03T16:27:20;70.17;;;34.77;;
34920;SDS011;21128;50.016;20.002;2023-03-03T16:33:26;76.30;;;39.15;;
34920;SDS011;21128;50.016;20.002;2023-03-03T16:37:02;79.80;;;35.83;;
34920;SDS011;21128;50.016;20.002;2023-03-03T16:39:09;72.07;;;36.50;;
34920;SDS011;21128;50.016;20.002;2023-03-03T16:41:49;82.80;;;39.25;;
34920;SDS011;21128;50.016;20.002;2023-03-03T16:44:50;76.40;;;37.50;;
34920;SDS011;21128;50.016;20.002;2023-03-03T16:47:28;74.10;;;37.90;;
34920;SDS011;21128;50.016;20.002;2023-03-03T16:50:06;80.67;;;37.07;;
34920;SDS011;21128;50.016;20.002;2023-03-03T16:55:41;67.45;;;35.80;;
34920;SDS011;21128;50.016;20.002;2023-03-03T17:03:47;71.70;;;37.13;;
34920;SDS011;21128;50.016;20.002;2023-03-03T17:06:40;73.93;;;36.97;;
34920;SDS011;21128;50.016;20.002;2023-03-03T17:09:22;71.17;;;34.03;;
34920;SDS011;21128;50.016;20.002;2023-03-03T17:12:13;70.60;;;34.77;;
34920;SDS011;21128;50.016;20.002;2023-03-03T17:14:48;68.90;;;32.85;;
34920;SDS011;21128;50.016;20.002;2023-03-03T17:28:46;69.67;;;35.87;;
34920;SDS011;21128;50.016;20.002;2023-03-03T17:31:19;70.17;;;37.03;;
34920;SDS011;21128;50.016;20.002;2023-03-03T17:39:11;74.43;;;37.83;;
34920;SDS011;21128;50.016;20.002;2023-03-03T17:42:03;75.20;;;38.57;;
34920;SDS011;21128;50.016;20.002;2023-03-03T17:47:15;75.25;;;37.15;;
34920;SDS011;21128;50.016;20.002;2023-03-03T17:55:50;75.20;;;35.20;;
34920;SDS011;21128;50.016;20.002;2023-03-03T18:04:12;71.67;;;36.30;;
34920;SDS011;21128;50.016;20.002;2023-03-03T18:09:35;68.93;;;36.67;;
34920;SDS011;21128;50.016;20.002;2023-03-03T18:12:37;71.50;;;34.83;;
34920;SDS011;21128;50.016;20.002;2023-03-03T18:17:58;81.50;;;38.47;;
34920;SDS011;21128;50.016;20.002;2023-03-03T18:29:16;76.60;;;39.47;;
34920;SDS011;21128;50.016;20.002;2023-03-03T18:31:46;61.20;;;30.70;;
34920;SDS011;21128;50.016;20.002;2023-03-03T18:36:50;70.20;;;35.07;;
34920;SDS011;21128;50.016;20.002;2023-03-03T18:42:08;78.20;;;34.83;;
34920;SDS011;21128;50.016;20.002;2023-03-03T18:44:42;72.60;;;35.70;;
34920;SDS011;21128;50.016;20.002;2023-03-03T18:47:10;73.10;;;35.20;;
34920;SDS011;21128;50.016;20.002;2023-03-03T18:49:48;65.80;;;35.00;;
34920;SDS011;21128;50.016;20.002;2023-03-03T18:52:22;71.53;;;36.23;;
34920;SDS011;21128;50.016;20.002;2023-03-03T18:55:35;76.60;;;35.63;;
34920;SDS011;21128;50.016;20.002;2023-03-03T18:57:55;74.70;;;35.93;;
34920;SDS011;21128;50.016;20.002;2023-03-03T19:09:03;66.10;;;34.03;;
34920;SDS011;21128;50.016;20.002;2023-03-03T19:11:42;66.07;;;33.00;;
34920;SDS011;21128;50.016;20.002;2023-03-03T19:16:43;73.70;;;35.75;;
34920;SDS011;21128;50.016;20.002;2023-03-03T19:19:12;67.67;;;35.23;;
34920;SDS011;21128;50.016;20.002;2023-03-03T19:21:44;63.35;;;33.23;;
34920;SDS011;21128;50.016;20.002;2023-03-03T19:24:30;69.05;;;35.10;;
34920;SDS011;21128;50.016;20.002;2023-03-03T19:38:41;68.23;;;35.40;;
34920;SDS011;21128;50.016;20.002;2023-03-03T19:49:27;64.30;;;33.60;;
34920;SDS011;21128;50.016;20.002;2023-03-03T19:52:10;69.23;;;34.43;;
34920;SDS011;21128;50.016;20.002;2023-03-03T19:54:51;66.33;;;32.57;;
34920;SDS011;21128;50.016;20.002;2023-03-03T19:57:32;58.43;;;32.03;;
34920;SDS011;21128;50.016;20.002;2023-03-03T20:08:17;63.17;;;32.70;;
34920;SDS011;21128;50.016;20.002;2023-03-03T20:11:06;59.50;;;32.87;;
34920;SDS011;21128;50.016;20.002;2023-03-03T20:22:10;61.07;;;33.53;;
34920;SDS011;21128;50.016;20.002;2023-03-03T20:33:09;63.37;;;32.77;;
34920;SDS011;21128;50.016;20.002;2023-03-03T20:38:36;65.73;;;31.77;;
34920;SDS011;21128;50.016;20.002;2023-03-03T20:49:52;69.47;;;33.57;;
34920;SDS011;21128;50.016;20.002;2023-03-03T20:52:31;65.13;;;29.57;;
34920;SDS011;21128;50.016;20.002;2023-03-03T20:55:18;68.40;;;32.07;;
34920;SDS011;21128;50.016;20.002;2023-03-03T20:57:57;62.10;;;31.23;;
34920;SDS011;21128;50.016;20.002;2023-03-03T21:06:17;64.07;;;31.20;;
34920;SDS011;21128;50.016;20.002;2023-03-03T21:08:53;70.50;;;31.30;;
34920;SDS011;21128;50.016;20.002;2023-03-03T21:11:23;62.10;;;30.37;;
34920;SDS011;21128;50.016;20.002;2023-03-03T21:14:20;65.30;;;31.43;;
34920;SDS011;21128;50.016;20.002;2023-03-03T21:16:59;53.00;;;24.70;;
34920;SDS011;21128;50.016;20.002;2023-03-03T21:19:37;67.50;;;31.87;;
34920;SDS011;21128;50.016;20.002;2023-03-03T21:22:04;71.25;;;33.60;;
34920;SDS011;21128;50.016;20.002;2023-03-03T21:24:51;64.50;;;31.20;;
34920;SDS011;21128;50.016;20.002;2023-03-03T21:30:05;72.17;;;34.23;;
34920;SDS011;21128;50.016;20.002;2023-03-03T21:32:43;72.30;;;34.77;;
34920;SDS011;21128;50.016;20.002;2023-03-03T21:35:14;70.60;;;33.23;;
34920;SDS011;21128;50.016;20.002;2023-03-03T21:40:19;74.50;;;35.80;;
34920;SDS011;21128;50.016;20.002;2023-03-03T21:42:51;78.13;;;36.10;;
34920;SDS011;21128;50.016;20.002;2023-03-03T21:45:22;73.00;;;36.30;;